sensor_id;sensor_type;location;lat;lon;timestamp;P1;durP1;ratioP1;P2;durP2;ratioP2
36971;SDS011;40554;52.122;20.678;2022-11-30T00:01:34;66.00;;;33.78;;
36971;SDS011;40554;52.122;20.678;2022-11-30T00:03:54;61.73;;;30.50;;
36971;SDS011;40554;52.122;20.678;2022-11-30T00:06:13;65.75;;;35.13;;
36971;SDS011;40554;52.122;20.678;2022-11-30T00:08:33;67.67;;;34.98;;
36971;SDS011;40554;52.122;20.678;2022-11-30T00:10:49;74.12;;;39.03;;
36971;SDS011;40554;52.122;20.678;2022-11-30T00:13:06;69.67;;;34.78;;
36971;SDS011;40554;52.122;20.678;2022-11-30T00:15:23;72.67;;;37.55;;
36971;SDS011;40554;52.122;20.678;2022-11-30T00:17:40;74.35;;;35.13;;
36971;SDS011;40554;52.122;20.678;2022-11-30T00:19:56;74.62;;;36.45;;
36971;SDS011;40554;52.122;20.678;2022-11-30T00:22:12;69.97;;;35.52;;
36971;SDS011;40554;52.122;20.678;2022-11-30T00:24:29;70.28;;;36.68;;
36971;SDS011;40554;52.122;20.678;2022-11-30T00:26:45;75.87;;;38.53;;
36971;SDS011;40554;52.122;20.678;2022-11-30T00:29:01;75.60;;;37.33;;
36971;SDS011;40554;52.122;20.678;2022-11-30T00:31:18;64.58;;;34.03;;
36971;SDS011;40554;52.122;20.678;2022-11-30T00:33:35;70.78;;;36.05;;
36971;SDS011;40554;52.122;20.678;2022-11-30T00:36:00;70.72;;;36.33;;
36971;SDS011;40554;52.122;20.678;2022-11-30T00:38:22;75.55;;;36.45;;
36971;SDS011;40554;52.122;20.678;2022-11-30T00:40:38;74.58;;;36.53;;
36971;SDS011;40554;52.122;20.678;2022-11-30T00:42:55;76.57;;;37.28;;
36971;SDS011;40554;52.122;20.678;2022-11-30T00:45:11;70.75;;;35.85;;
36971;SDS011;40554;52.122;20.678;2022-11-30T00:47:27;69.40;;;36.10;;
36971;SDS011;40554;52.122;20.678;2022-11-30T00:49:44;75.28;;;37.60;;
36971;SDS011;40554;52.122;20.678;2022-11-30T00:52:00;68.45;;;35.08;;
36971;SDS011;40554;52.122;20.678;2022-11-30T00:54:17;71.82;;;36.28;;
36971;SDS011;40554;52.122;20.678;2022-11-30T00:56:33;68.70;;;35.13;;
36971;SDS011;40554;52.122;20.678;2022-11-30T00:58:50;74.70;;;36.93;;
36971;SDS011;40554;52.122;20.678;2022-11-30T01:01:06;74.77;;;37.50;;
36971;SDS011;40554;52.122;20.678;2022-11-30T01:03:23;68.67;;;35.23;;
36971;SDS011;40554;52.122;20.678;2022-11-30T01:05:40;70.57;;;36.68;;
36971;SDS011;40554;52.122;20.678;2022-11-30T01:08:04;71.42;;;37.00;;
36971;SDS011;40554;52.122;20.678;2022-11-30T01:10:23;68.92;;;36.73;;
36971;SDS011;40554;52.122;20.678;2022-11-30T01:12:39;68.78;;;34.48;;
36971;SDS011;40554;52.122;20.678;2022-11-30T01:14:55;72.78;;;36.58;;
36971;SDS011;40554;52.122;20.678;2022-11-30T01:17:12;75.10;;;36.98;;
36971;SDS011;40554;52.122;20.678;2022-11-30T01:19:28;74.00;;;37.17;;
36971;SDS011;40554;52.122;20.678;2022-11-30T01:21:44;72.97;;;35.68;;
36971;SDS011;40554;52.122;20.678;2022-11-30T01:24:00;71.05;;;35.70;;
36971;SDS011;40554;52.122;20.678;2022-11-30T01:26:17;73.15;;;37.28;;
36971;SDS011;40554;52.122;20.678;2022-11-30T01:28:34;70.90;;;35.23;;
36971;SDS011;40554;52.122;20.678;2022-11-30T01:30:57;73.67;;;37.60;;
36971;SDS011;40554;52.122;20.678;2022-11-30T01:33:17;72.67;;;37.93;;
36971;SDS011;40554;52.122;20.678;2022-11-30T01:35:34;71.05;;;36.28;;
36971;SDS011;40554;52.122;20.678;2022-11-30T01:37:50;67.78;;;35.05;;
36971;SDS011;40554;52.122;20.678;2022-11-30T01:40:06;65.42;;;34.70;;
36971;SDS011;40554;52.122;20.678;2022-11-30T01:42:24;71.37;;;35.05;;
36971;SDS011;40554;52.122;20.678;2022-11-30T01:44:49;71.85;;;35.75;;
36971;SDS011;40554;52.122;20.678;2022-11-30T01:47:14;79.10;;;35.45;;
36971;SDS011;40554;52.122;20.678;2022-11-30T01:51:58;70.67;;;33.85;;
36971;SDS011;40554;52.122;20.678;2022-11-30T01:54:31;64.07;;;32.83;;
36971;SDS011;40554;52.122;20.678;2022-11-30T01:56:52;59.48;;;30.90;;
36971;SDS011;40554;52.122;20.678;2022-11-30T01:59:11;55.75;;;29.55;;
36971;SDS011;40554;52.122;20.678;2022-11-30T02:01:28;57.75;;;29.85;;
36971;SDS011;40554;52.122;20.678;2022-11-30T02:03:51;58.08;;;29.42;;
36971;SDS011;40554;52.122;20.678;2022-11-30T02:06:15;57.50;;;28.45;;
36971;SDS011;40554;52.122;20.678;2022-11-30T02:08:32;55.58;;;28.75;;
36971;SDS011;40554;52.122;20.678;2022-11-30T02:10:51;57.13;;;29.35;;
36971;SDS011;40554;52.122;20.678;2022-11-30T02:13:16;61.60;;;29.23;;
36971;SDS011;40554;52.122;20.678;2022-11-30T02:18:21;53.65;;;27.82;;
36971;SDS011;40554;52.122;20.678;2022-11-30T02:26:34;50.33;;;26.05;;
36971;SDS011;40554;52.122;20.678;2022-11-30T02:31:41;55.23;;;28.07;;
36971;SDS011;40554;52.122;20.678;2022-11-30T02:34:20;56.23;;;28.15;;
36971;SDS011;40554;52.122;20.678;2022-11-30T02:36:40;56.10;;;27.67;;
36971;SDS011;40554;52.122;20.678;2022-11-30T02:38:57;53.92;;;26.77;;
36971;SDS011;40554;52.122;20.678;2022-11-30T02:41:14;52.27;;;26.68;;
36971;SDS011;40554;52.122;20.678;2022-11-30T02:43:30;50.55;;;25.40;;
36971;SDS011;40554;52.122;20.678;2022-11-30T02:51:06;47.43;;;24.25;;
36971;SDS011;40554;52.122;20.678;2022-11-30T02:53:27;51.10;;;24.43;;
36971;SDS011;40554;52.122;20.678;2022-11-30T02:55:44;40.67;;;21.93;;
36971;SDS011;40554;52.122;20.678;2022-11-30T02:58:01;47.23;;;24.70;;
36971;SDS011;40554;52.122;20.678;2022-11-30T03:00:18;40.85;;;21.23;;
36971;SDS011;40554;52.122;20.678;2022-11-30T03:02:35;49.65;;;25.15;;
36971;SDS011;40554;52.122;20.678;2022-11-30T03:04:52;45.40;;;24.12;;
36971;SDS011;40554;52.122;20.678;2022-11-30T03:07:08;48.13;;;25.10;;
36971;SDS011;40554;52.122;20.678;2022-11-30T03:09:24;47.65;;;22.32;;
36971;SDS011;40554;52.122;20.678;2022-11-30T03:11:40;41.23;;;22.22;;
36971;SDS011;40554;52.122;20.678;2022-11-30T03:13:57;42.20;;;21.75;;
36971;SDS011;40554;52.122;20.678;2022-11-30T03:16:13;41.75;;;22.40;;
36971;SDS011;40554;52.122;20.678;2022-11-30T03:18:30;43.00;;;21.80;;
36971;SDS011;40554;52.122;20.678;2022-11-30T03:20:47;39.42;;;21.85;;
36971;SDS011;40554;52.122;20.678;2022-11-30T03:23:04;40.73;;;20.88;;
36971;SDS011;40554;52.122;20.678;2022-11-30T03:25:20;41.42;;;22.15;;
36971;SDS011;40554;52.122;20.678;2022-11-30T03:27:36;36.63;;;20.10;;
36971;SDS011;40554;52.122;20.678;2022-11-30T03:29:53;41.73;;;20.88;;
36971;SDS011;40554;52.122;20.678;2022-11-30T03:32:09;43.38;;;22.52;;
36971;SDS011;40554;52.122;20.678;2022-11-30T03:34:26;41.77;;;21.30;;
36971;SDS011;40554;52.122;20.678;2022-11-30T03:36:42;42.30;;;20.90;;
36971;SDS011;40554;52.122;20.678;2022-11-30T03:38:59;40.48;;;23.18;;
36971;SDS011;40554;52.122;20.678;2022-11-30T03:41:16;39.55;;;21.57;;
36971;SDS011;40554;52.122;20.678;2022-11-30T03:43:33;43.75;;;21.62;;
36971;SDS011;40554;52.122;20.678;2022-11-30T03:45:49;38.15;;;20.72;;
36971;SDS011;40554;52.122;20.678;2022-11-30T03:48:05;40.40;;;21.20;;
36971;SDS011;40554;52.122;20.678;2022-11-30T03:50:22;43.20;;;21.68;;
36971;SDS011;40554;52.122;20.678;2022-11-30T03:52:38;41.75;;;21.23;;
36971;SDS011;40554;52.122;20.678;2022-11-30T03:54:55;36.05;;;19.98;;
36971;SDS011;40554;52.122;20.678;2022-11-30T03:57:11;40.65;;;20.65;;
36971;SDS011;40554;52.122;20.678;2022-11-30T03:59:27;37.95;;;20.82;;
36971;SDS011;40554;52.122;20.678;2022-11-30T04:01:44;41.28;;;21.20;;
36971;SDS011;40554;52.122;20.678;2022-11-30T04:04:00;37.75;;;20.27;;
36971;SDS011;40554;52.122;20.678;2022-11-30T04:06:16;41.88;;;21.27;;
36971;SDS011;40554;52.122;20.678;2022-11-30T04:08:35;38.85;;;21.15;;
36971;SDS011;40554;52.122;20.678;2022-11-30T04:10:52;37.85;;;20.35;;
36971;SDS011;40554;52.122;20.678;2022-11-30T04:13:10;31.68;;;18.45;;
36971;SDS011;40554;52.122;20.678;2022-11-30T04:15:26;33.83;;;19.12;;
36971;SDS011;40554;52.122;20.678;2022-11-30T04:17:43;35.65;;;18.52;;
36971;SDS011;40554;52.122;20.678;2022-11-30T04:19:59;35.63;;;19.52;;
36971;SDS011;40554;52.122;20.678;2022-11-30T04:22:15;40.40;;;19.80;;
36971;SDS011;40554;52.122;20.678;2022-11-30T04:24:31;39.67;;;21.20;;
36971;SDS011;40554;52.122;20.678;2022-11-30T04:26:48;36.00;;;20.05;;
36971;SDS011;40554;52.122;20.678;2022-11-30T04:29:04;37.45;;;18.95;;
36971;SDS011;40554;52.122;20.678;2022-11-30T04:31:20;39.58;;;20.55;;
36971;SDS011;40554;52.122;20.678;2022-11-30T04:33:37;40.03;;;20.70;;
36971;SDS011;40554;52.122;20.678;2022-11-30T04:35:56;40.95;;;20.68;;
36971;SDS011;40554;52.122;20.678;2022-11-30T04:38:14;32.20;;;17.60;;
36971;SDS011;40554;52.122;20.678;2022-11-30T04:40:30;32.55;;;17.37;;
36971;SDS011;40554;52.122;20.678;2022-11-30T04:42:46;34.08;;;18.80;;
36971;SDS011;40554;52.122;20.678;2022-11-30T04:45:03;37.58;;;18.57;;
36971;SDS011;40554;52.122;20.678;2022-11-30T04:47:20;32.45;;;17.17;;
36971;SDS011;40554;52.122;20.678;2022-11-30T04:49:36;38.95;;;20.00;;
36971;SDS011;40554;52.122;20.678;2022-11-30T04:51:53;32.55;;;18.67;;
36971;SDS011;40554;52.122;20.678;2022-11-30T04:54:09;35.15;;;18.82;;
36971;SDS011;40554;52.122;20.678;2022-11-30T04:56:25;37.75;;;18.02;;
36971;SDS011;40554;52.122;20.678;2022-11-30T04:58:42;33.70;;;17.42;;
36971;SDS011;40554;52.122;20.678;2022-11-30T05:00:58;36.58;;;18.82;;
36971;SDS011;40554;52.122;20.678;2022-11-30T05:03:14;34.08;;;17.40;;
36971;SDS011;40554;52.122;20.678;2022-11-30T05:05:30;33.55;;;18.30;;
36971;SDS011;40554;52.122;20.678;2022-11-30T05:07:53;33.10;;;17.75;;
36971;SDS011;40554;52.122;20.678;2022-11-30T05:10:12;30.90;;;17.00;;
36971;SDS011;40554;52.122;20.678;2022-11-30T05:12:28;32.55;;;17.92;;
36971;SDS011;40554;52.122;20.678;2022-11-30T05:14:45;27.00;;;15.05;;
36971;SDS011;40554;52.122;20.678;2022-11-30T05:17:01;31.27;;;17.15;;
36971;SDS011;40554;52.122;20.678;2022-11-30T05:19:18;30.52;;;16.93;;
36971;SDS011;40554;52.122;20.678;2022-11-30T05:21:35;30.97;;;16.93;;
36971;SDS011;40554;52.122;20.678;2022-11-30T05:23:51;33.38;;;18.52;;
36971;SDS011;40554;52.122;20.678;2022-11-30T05:26:08;30.65;;;16.65;;
36971;SDS011;40554;52.122;20.678;2022-11-30T05:28:24;35.20;;;16.27;;
36971;SDS011;40554;52.122;20.678;2022-11-30T05:30:41;33.50;;;16.97;;
36971;SDS011;40554;52.122;20.678;2022-11-30T05:32:58;28.67;;;16.75;;
36971;SDS011;40554;52.122;20.678;2022-11-30T05:35:14;26.23;;;15.48;;
36971;SDS011;40554;52.122;20.678;2022-11-30T05:37:31;33.18;;;17.57;;
36971;SDS011;40554;52.122;20.678;2022-11-30T05:39:47;31.50;;;17.00;;
36971;SDS011;40554;52.122;20.678;2022-11-30T05:42:03;31.73;;;17.80;;
36971;SDS011;40554;52.122;20.678;2022-11-30T05:44:20;34.08;;;16.82;;
36971;SDS011;40554;52.122;20.678;2022-11-30T05:46:36;30.27;;;17.42;;
36971;SDS011;40554;52.122;20.678;2022-11-30T05:48:52;32.48;;;17.02;;
36971;SDS011;40554;52.122;20.678;2022-11-30T05:51:14;34.85;;;18.77;;
36971;SDS011;40554;52.122;20.678;2022-11-30T05:53:29;31.75;;;16.80;;
36971;SDS011;40554;52.122;20.678;2022-11-30T05:55:46;33.90;;;17.80;;
36971;SDS011;40554;52.122;20.678;2022-11-30T05:58:02;30.40;;;17.00;;
36971;SDS011;40554;52.122;20.678;2022-11-30T06:00:19;29.20;;;16.10;;
36971;SDS011;40554;52.122;20.678;2022-11-30T06:02:36;28.45;;;15.00;;
36971;SDS011;40554;52.122;20.678;2022-11-30T06:04:53;23.10;;;13.20;;
36971;SDS011;40554;52.122;20.678;2022-11-30T06:07:09;26.75;;;14.50;;
36971;SDS011;40554;52.122;20.678;2022-11-30T06:09:26;28.77;;;16.45;;
36971;SDS011;40554;52.122;20.678;2022-11-30T06:11:43;27.60;;;15.50;;
36971;SDS011;40554;52.122;20.678;2022-11-30T06:13:59;30.48;;;16.37;;
36971;SDS011;40554;52.122;20.678;2022-11-30T06:16:16;22.55;;;13.80;;
36971;SDS011;40554;52.122;20.678;2022-11-30T06:18:32;29.00;;;15.78;;
36971;SDS011;40554;52.122;20.678;2022-11-30T06:20:49;28.83;;;16.30;;
36971;SDS011;40554;52.122;20.678;2022-11-30T06:23:06;28.45;;;16.50;;
36971;SDS011;40554;52.122;20.678;2022-11-30T06:25:22;28.23;;;15.80;;
36971;SDS011;40554;52.122;20.678;2022-11-30T06:27:39;30.25;;;16.85;;
36971;SDS011;40554;52.122;20.678;2022-11-30T06:29:55;48.78;;;18.67;;
36971;SDS011;40554;52.122;20.678;2022-11-30T06:32:11;30.37;;;17.32;;
36971;SDS011;40554;52.122;20.678;2022-11-30T06:34:31;35.33;;;16.73;;
36971;SDS011;40554;52.122;20.678;2022-11-30T06:36:47;30.12;;;16.67;;
36971;SDS011;40554;52.122;20.678;2022-11-30T06:39:04;35.78;;;19.12;;
36971;SDS011;40554;52.122;20.678;2022-11-30T06:41:20;35.55;;;17.82;;
36971;SDS011;40554;52.122;20.678;2022-11-30T06:43:37;32.33;;;17.35;;
36971;SDS011;40554;52.122;20.678;2022-11-30T06:45:54;31.17;;;18.45;;
36971;SDS011;40554;52.122;20.678;2022-11-30T06:48:11;37.60;;;19.45;;
36971;SDS011;40554;52.122;20.678;2022-11-30T06:50:28;37.03;;;19.55;;
36971;SDS011;40554;52.122;20.678;2022-11-30T06:52:44;32.35;;;17.90;;
36971;SDS011;40554;52.122;20.678;2022-11-30T06:55:00;36.90;;;18.25;;
36971;SDS011;40554;52.122;20.678;2022-11-30T06:57:17;30.52;;;16.67;;
36971;SDS011;40554;52.122;20.678;2022-11-30T06:59:33;33.25;;;16.57;;
36971;SDS011;40554;52.122;20.678;2022-11-30T07:01:52;29.35;;;15.40;;
36971;SDS011;40554;52.122;20.678;2022-11-30T07:04:08;27.82;;;14.98;;
36971;SDS011;40554;52.122;20.678;2022-11-30T07:06:24;32.15;;;15.48;;
36971;SDS011;40554;52.122;20.678;2022-11-30T07:08:41;29.15;;;16.45;;
36971;SDS011;40554;52.122;20.678;2022-11-30T07:10:58;30.55;;;16.15;;
36971;SDS011;40554;52.122;20.678;2022-11-30T07:13:16;29.07;;;16.42;;
36971;SDS011;40554;52.122;20.678;2022-11-30T07:15:34;31.25;;;16.15;;
36971;SDS011;40554;52.122;20.678;2022-11-30T07:17:50;26.37;;;15.00;;
36971;SDS011;40554;52.122;20.678;2022-11-30T07:20:07;27.95;;;15.98;;
36971;SDS011;40554;52.122;20.678;2022-11-30T07:22:24;28.52;;;15.28;;
36971;SDS011;40554;52.122;20.678;2022-11-30T07:24:40;36.77;;;14.87;;
36971;SDS011;40554;52.122;20.678;2022-11-30T07:27:15;27.60;;;15.05;;
36971;SDS011;40554;52.122;20.678;2022-11-30T07:29:31;28.85;;;16.12;;
36971;SDS011;40554;52.122;20.678;2022-11-30T07:31:51;31.45;;;16.60;;
36971;SDS011;40554;52.122;20.678;2022-11-30T07:34:08;30.57;;;17.60;;
36971;SDS011;40554;52.122;20.678;2022-11-30T07:36:26;32.23;;;16.27;;
36971;SDS011;40554;52.122;20.678;2022-11-30T07:38:44;34.53;;;17.82;;
36971;SDS011;40554;52.122;20.678;2022-11-30T07:41:01;37.23;;;20.30;;
36971;SDS011;40554;52.122;20.678;2022-11-30T07:43:17;35.13;;;20.25;;
36971;SDS011;40554;52.122;20.678;2022-11-30T07:45:34;30.82;;;16.87;;
36971;SDS011;40554;52.122;20.678;2022-11-30T07:47:50;41.08;;;17.70;;
36971;SDS011;40554;52.122;20.678;2022-11-30T07:50:07;30.75;;;15.80;;
36971;SDS011;40554;52.122;20.678;2022-11-30T07:52:25;31.00;;;15.88;;
36971;SDS011;40554;52.122;20.678;2022-11-30T07:54:41;26.75;;;15.48;;
36971;SDS011;40554;52.122;20.678;2022-11-30T07:56:58;34.05;;;17.30;;
36971;SDS011;40554;52.122;20.678;2022-11-30T07:59:14;31.35;;;15.85;;
36971;SDS011;40554;52.122;20.678;2022-11-30T08:01:31;31.50;;;17.57;;
36971;SDS011;40554;52.122;20.678;2022-11-30T08:03:49;25.10;;;12.85;;
36971;SDS011;40554;52.122;20.678;2022-11-30T08:06:07;29.05;;;15.30;;
36971;SDS011;40554;52.122;20.678;2022-11-30T08:08:27;28.02;;;15.23;;
36971;SDS011;40554;52.122;20.678;2022-11-30T08:10:50;28.40;;;15.50;;
36971;SDS011;40554;52.122;20.678;2022-11-30T08:13:06;25.57;;;14.87;;
36971;SDS011;40554;52.122;20.678;2022-11-30T08:15:23;27.15;;;15.38;;
36971;SDS011;40554;52.122;20.678;2022-11-30T08:17:39;31.75;;;17.12;;
36971;SDS011;40554;52.122;20.678;2022-11-30T08:19:56;30.75;;;16.20;;
36971;SDS011;40554;52.122;20.678;2022-11-30T08:22:13;26.57;;;15.38;;
36971;SDS011;40554;52.122;20.678;2022-11-30T08:24:29;29.60;;;15.78;;
36971;SDS011;40554;52.122;20.678;2022-11-30T08:26:49;30.70;;;16.85;;
36971;SDS011;40554;52.122;20.678;2022-11-30T08:29:07;28.40;;;15.35;;
36971;SDS011;40554;52.122;20.678;2022-11-30T08:31:26;29.25;;;15.43;;
36971;SDS011;40554;52.122;20.678;2022-11-30T08:33:49;33.02;;;17.40;;
36971;SDS011;40554;52.122;20.678;2022-11-30T08:36:12;31.23;;;16.80;;
36971;SDS011;40554;52.122;20.678;2022-11-30T08:38:32;34.10;;;18.13;;
36971;SDS011;40554;52.122;20.678;2022-11-30T08:40:50;30.25;;;16.67;;
36971;SDS011;40554;52.122;20.678;2022-11-30T08:43:06;39.48;;;17.70;;
36971;SDS011;40554;52.122;20.678;2022-11-30T08:45:22;31.82;;;17.07;;
36971;SDS011;40554;52.122;20.678;2022-11-30T08:47:39;30.52;;;16.55;;
36971;SDS011;40554;52.122;20.678;2022-11-30T08:49:56;33.83;;;17.23;;
36971;SDS011;40554;52.122;20.678;2022-11-30T08:52:13;34.35;;;17.25;;
36971;SDS011;40554;52.122;20.678;2022-11-30T08:54:29;37.13;;;18.05;;
36971;SDS011;40554;52.122;20.678;2022-11-30T08:56:45;30.05;;;15.83;;
36971;SDS011;40554;52.122;20.678;2022-11-30T08:59:02;31.62;;;16.32;;
36971;SDS011;40554;52.122;20.678;2022-11-30T09:01:20;27.22;;;15.65;;
36971;SDS011;40554;52.122;20.678;2022-11-30T09:03:39;32.25;;;14.98;;
36971;SDS011;40554;52.122;20.678;2022-11-30T09:06:02;29.07;;;15.50;;
36971;SDS011;40554;52.122;20.678;2022-11-30T09:08:23;31.68;;;14.90;;
36971;SDS011;40554;52.122;20.678;2022-11-30T09:10:40;28.40;;;15.03;;
36971;SDS011;40554;52.122;20.678;2022-11-30T09:12:56;30.10;;;16.27;;
36971;SDS011;40554;52.122;20.678;2022-11-30T09:15:13;28.70;;;16.05;;
36971;SDS011;40554;52.122;20.678;2022-11-30T09:17:29;27.32;;;15.10;;
36971;SDS011;40554;52.122;20.678;2022-11-30T09:19:45;25.43;;;14.50;;
36971;SDS011;40554;52.122;20.678;2022-11-30T09:22:02;27.40;;;15.53;;
36971;SDS011;40554;52.122;20.678;2022-11-30T09:24:18;30.92;;;17.37;;
36971;SDS011;40554;52.122;20.678;2022-11-30T09:26:35;33.28;;;17.85;;
36971;SDS011;40554;52.122;20.678;2022-11-30T09:28:52;30.27;;;17.02;;
36971;SDS011;40554;52.122;20.678;2022-11-30T09:31:10;35.48;;;18.77;;
36971;SDS011;40554;52.122;20.678;2022-11-30T09:33:29;29.60;;;15.98;;
36971;SDS011;40554;52.122;20.678;2022-11-30T09:35:56;34.23;;;18.75;;
36971;SDS011;40554;52.122;20.678;2022-11-30T09:38:19;33.23;;;17.82;;
36971;SDS011;40554;52.122;20.678;2022-11-30T09:40:35;30.97;;;16.73;;
36971;SDS011;40554;52.122;20.678;2022-11-30T09:42:56;27.80;;;15.45;;
36971;SDS011;40554;52.122;20.678;2022-11-30T09:45:30;30.32;;;16.87;;
36971;SDS011;40554;52.122;20.678;2022-11-30T09:50:39;29.10;;;15.20;;
36971;SDS011;40554;52.122;20.678;2022-11-30T09:53:02;31.30;;;16.17;;
36971;SDS011;40554;52.122;20.678;2022-11-30T09:55:25;30.68;;;16.30;;
36971;SDS011;40554;52.122;20.678;2022-11-30T09:57:48;31.68;;;17.32;;
36971;SDS011;40554;52.122;20.678;2022-11-30T10:02:35;28.30;;;16.50;;
36971;SDS011;40554;52.122;20.678;2022-11-30T10:04:52;30.40;;;16.85;;
36971;SDS011;40554;52.122;20.678;2022-11-30T10:10:15;29.77;;;17.55;;
36971;SDS011;40554;52.122;20.678;2022-11-30T10:12:42;33.50;;;18.27;;
36971;SDS011;40554;52.122;20.678;2022-11-30T10:15:33;37.73;;;20.52;;
36971;SDS011;40554;52.122;20.678;2022-11-30T10:21:13;38.35;;;19.48;;
36971;SDS011;40554;52.122;20.678;2022-11-30T10:24:00;37.53;;;20.55;;
36971;SDS011;40554;52.122;20.678;2022-11-30T10:26:34;34.98;;;19.52;;
36971;SDS011;40554;52.122;20.678;2022-11-30T10:28:54;34.55;;;20.65;;
36971;SDS011;40554;52.122;20.678;2022-11-30T10:31:19;39.13;;;21.97;;
36971;SDS011;40554;52.122;20.678;2022-11-30T10:33:51;40.30;;;22.05;;
36971;SDS011;40554;52.122;20.678;2022-11-30T10:36:14;34.27;;;20.70;;
36971;SDS011;40554;52.122;20.678;2022-11-30T10:38:51;34.78;;;20.25;;
36971;SDS011;40554;52.122;20.678;2022-11-30T10:41:20;35.70;;;21.20;;
36971;SDS011;40554;52.122;20.678;2022-11-30T10:43:51;35.63;;;21.43;;
36971;SDS011;40554;52.122;20.678;2022-11-30T10:46:19;35.83;;;21.68;;
36971;SDS011;40554;52.122;20.678;2022-11-30T10:48:39;36.85;;;21.50;;
36971;SDS011;40554;52.122;20.678;2022-11-30T10:51:00;39.83;;;21.73;;
36971;SDS011;40554;52.122;20.678;2022-11-30T10:53:18;37.15;;;21.93;;
36971;SDS011;40554;52.122;20.678;2022-11-30T10:55:37;38.53;;;20.90;;
36971;SDS011;40554;52.122;20.678;2022-11-30T10:58:08;35.15;;;21.05;;
36971;SDS011;40554;52.122;20.678;2022-11-30T11:00:21;32.95;;;19.73;;
36971;SDS011;40554;52.122;20.678;2022-11-30T11:02:40;41.83;;;21.65;;
36971;SDS011;40554;52.122;20.678;2022-11-30T11:10:12;43.95;;;22.10;;
36971;SDS011;40554;52.122;20.678;2022-11-30T11:12:33;37.03;;;19.90;;
36971;SDS011;40554;52.122;20.678;2022-11-30T11:15:15;35.50;;;20.25;;
36971;SDS011;40554;52.122;20.678;2022-11-30T11:17:42;36.50;;;19.80;;
36971;SDS011;40554;52.122;20.678;2022-11-30T11:19:58;35.35;;;20.10;;
36971;SDS011;40554;52.122;20.678;2022-11-30T11:22:26;41.48;;;20.85;;
36971;SDS011;40554;52.122;20.678;2022-11-30T11:24:41;38.17;;;20.97;;
36971;SDS011;40554;52.122;20.678;2022-11-30T11:26:58;43.60;;;23.75;;
36971;SDS011;40554;52.122;20.678;2022-11-30T11:29:26;44.00;;;24.63;;
36971;SDS011;40554;52.122;20.678;2022-11-30T11:31:48;36.75;;;21.02;;
36971;SDS011;40554;52.122;20.678;2022-11-30T11:34:07;36.30;;;20.17;;
36971;SDS011;40554;52.122;20.678;2022-11-30T11:36:45;34.95;;;19.65;;
36971;SDS011;40554;52.122;20.678;2022-11-30T11:39:04;35.73;;;19.90;;
36971;SDS011;40554;52.122;20.678;2022-11-30T11:41:25;36.33;;;19.98;;
36971;SDS011;40554;52.122;20.678;2022-11-30T11:44:32;39.60;;;20.32;;
36971;SDS011;40554;52.122;20.678;2022-11-30T11:46:15;40.70;;;21.70;;
36971;SDS011;40554;52.122;20.678;2022-11-30T11:48:45;39.35;;;22.25;;
36971;SDS011;40554;52.122;20.678;2022-11-30T11:51:28;42.53;;;22.90;;
36971;SDS011;40554;52.122;20.678;2022-11-30T11:53:51;38.50;;;20.35;;
36971;SDS011;40554;52.122;20.678;2022-11-30T11:58:41;42.15;;;22.58;;
36971;SDS011;40554;52.122;20.678;2022-11-30T12:01:10;36.65;;;19.25;;
36971;SDS011;40554;52.122;20.678;2022-11-30T12:06:02;38.42;;;19.05;;
36971;SDS011;40554;52.122;20.678;2022-11-30T12:11:18;33.60;;;17.52;;
36971;SDS011;40554;52.122;20.678;2022-11-30T12:13:47;32.10;;;16.65;;
36971;SDS011;40554;52.122;20.678;2022-11-30T12:24:17;34.92;;;18.70;;
36971;SDS011;40554;52.122;20.678;2022-11-30T12:26:57;37.45;;;18.50;;
36971;SDS011;40554;52.122;20.678;2022-11-30T12:29:26;31.50;;;18.05;;
36971;SDS011;40554;52.122;20.678;2022-11-30T12:32:22;27.40;;;13.83;;
36971;SDS011;40554;52.122;20.678;2022-11-30T12:48:44;34.70;;;16.77;;
36971;SDS011;40554;52.122;20.678;2022-11-30T12:51:24;32.40;;;18.00;;
36971;SDS011;40554;52.122;20.678;2022-11-30T12:59:21;44.60;;;21.37;;
36971;SDS011;40554;52.122;20.678;2022-11-30T13:04:27;48.83;;;22.48;;
36971;SDS011;40554;52.122;20.678;2022-11-30T13:06:59;40.65;;;20.12;;
36971;SDS011;40554;52.122;20.678;2022-11-30T13:09:35;33.80;;;16.52;;
36971;SDS011;40554;52.122;20.678;2022-11-30T13:12:27;38.33;;;18.73;;
36971;SDS011;40554;52.122;20.678;2022-11-30T13:14:55;37.53;;;18.48;;
36971;SDS011;40554;52.122;20.678;2022-11-30T13:17:17;35.50;;;17.37;;
36971;SDS011;40554;52.122;20.678;2022-11-30T13:22:16;34.92;;;17.55;;
36971;SDS011;40554;52.122;20.678;2022-11-30T13:25:02;31.75;;;17.92;;
36971;SDS011;40554;52.122;20.678;2022-11-30T13:27:23;33.35;;;18.00;;
36971;SDS011;40554;52.122;20.678;2022-11-30T13:32:32;35.35;;;19.42;;
36971;SDS011;40554;52.122;20.678;2022-11-30T13:34:49;38.40;;;20.48;;
36971;SDS011;40554;52.122;20.678;2022-11-30T13:37:10;40.25;;;20.50;;
36971;SDS011;40554;52.122;20.678;2022-11-30T13:39:51;33.38;;;17.30;;
36971;SDS011;40554;52.122;20.678;2022-11-30T13:44:30;43.87;;;22.55;;
36971;SDS011;40554;52.122;20.678;2022-11-30T13:46:50;38.28;;;20.50;;
36971;SDS011;40554;52.122;20.678;2022-11-30T13:49:09;49.55;;;25.48;;
36971;SDS011;40554;52.122;20.678;2022-11-30T13:51:36;38.98;;;19.45;;
36971;SDS011;40554;52.122;20.678;2022-11-30T13:54:09;44.15;;;22.22;;
36971;SDS011;40554;52.122;20.678;2022-11-30T13:56:51;47.73;;;25.85;;
36971;SDS011;40554;52.122;20.678;2022-11-30T14:00:41;35.85;;;20.43;;
36971;SDS011;40554;52.122;20.678;2022-11-30T14:01:41;36.40;;;19.87;;
36971;SDS011;40554;52.122;20.678;2022-11-30T14:09:02;33.10;;;16.67;;
36971;SDS011;40554;52.122;20.678;2022-11-30T14:13:52;36.45;;;18.77;;
36971;SDS011;40554;52.122;20.678;2022-11-30T14:16:24;30.72;;;17.07;;
36971;SDS011;40554;52.122;20.678;2022-11-30T14:18:45;32.60;;;17.90;;
36971;SDS011;40554;52.122;20.678;2022-11-30T14:21:11;32.88;;;17.10;;
36971;SDS011;40554;52.122;20.678;2022-11-30T14:26:12;37.67;;;20.50;;
36971;SDS011;40554;52.122;20.678;2022-11-30T14:29:01;33.48;;;18.65;;
36971;SDS011;40554;52.122;20.678;2022-11-30T14:31:15;36.17;;;20.00;;
36971;SDS011;40554;52.122;20.678;2022-11-30T14:34:13;37.33;;;20.80;;
36971;SDS011;40554;52.122;20.678;2022-11-30T14:36:07;35.35;;;19.55;;
36971;SDS011;40554;52.122;20.678;2022-11-30T14:38:26;40.75;;;22.05;;
36971;SDS011;40554;52.122;20.678;2022-11-30T14:40:50;39.08;;;21.52;;
36971;SDS011;40554;52.122;20.678;2022-11-30T14:43:13;42.25;;;24.45;;
36971;SDS011;40554;52.122;20.678;2022-11-30T14:45:29;46.70;;;23.35;;
36971;SDS011;40554;52.122;20.678;2022-11-30T14:47:52;35.58;;;20.60;;
36971;SDS011;40554;52.122;20.678;2022-11-30T15:01:17;33.42;;;18.10;;
36971;SDS011;40554;52.122;20.678;2022-11-30T15:03:36;31.62;;;16.73;;
36971;SDS011;40554;52.122;20.678;2022-11-30T15:05:54;31.62;;;17.27;;
36971;SDS011;40554;52.122;20.678;2022-11-30T15:08:14;28.38;;;16.60;;
36971;SDS011;40554;52.122;20.678;2022-11-30T15:10:32;33.50;;;17.12;;